createdAt,value
2022-12-28T00:54:33.047Z,22.91
2022-12-28T00:55:33.923Z,23.12
2022-12-28T00:56:33.919Z,23.18
2022-12-28T00:57:33.919Z,23.22
2022-12-28T00:58:33.876Z,23.24
2022-12-28T00:59:33.892Z,23.27
2022-12-28T01:00:33.848Z,23.28
2022-12-28T01:01:33.964Z,23.29
2022-12-28T01:02:33.885Z,23.30
2022-12-28T01:03:33.813Z,23.30
2022-12-28T01:04:33.830Z,23.30
2022-12-28T01:05:33.778Z,23.31
2022-12-28T01:06:33.758Z,23.32
2022-12-28T01:07:33.742Z,23.32
2022-12-28T01:08:33.740Z,23.31
2022-12-28T01:09:33.751Z,23.31
2022-12-28T01:10:33.766Z,23.31
2022-12-28T01:11:33.701Z,23.31
2022-12-28T01:12:38.117Z,23.31
2022-12-28T01:13:33.713Z,23.31
2022-12-28T01:14:33.683Z,23.31
2022-12-28T01:15:33.651Z,23.31
2022-12-28T01:16:33.696Z,23.32
2022-12-28T01:17:33.638Z,23.31
2022-12-28T01:18:33.613Z,23.32
2022-12-28T01:19:33.607Z,23.32
2022-12-28T01:20:33.593Z,23.32
2022-12-28T01:21:33.580Z,23.32
2022-12-28T01:22:33.588Z,23.31
2022-12-28T01:23:33.564Z,23.31
2022-12-28T01:24:33.544Z,23.31
2022-12-28T01:25:33.538Z,23.31
2022-12-28T01:26:33.529Z,23.31
2022-12-28T01:27:33.487Z,23.31
2022-12-28T01:28:33.472Z,23.30
2022-12-28T01:29:33.457Z,23.30
2022-12-28T01:30:33.450Z,23.30
2022-12-28T01:31:33.481Z,23.30
2022-12-28T01:32:33.419Z,23.30
2022-12-28T01:33:33.403Z,23.31
2022-12-28T01:34:33.392Z,23.31
2022-12-28T01:35:33.391Z,23.30
2022-12-28T01:36:33.367Z,23.30
2022-12-28T01:37:33.351Z,23.31
2022-12-28T01:38:33.342Z,23.31
2022-12-28T01:39:33.322Z,23.30
2022-12-28T01:40:33.307Z,23.31
2022-12-28T01:41:33.289Z,23.31
2022-12-28T01:42:33.315Z,23.31
2022-12-28T01:43:33.254Z,23.31
2022-12-28T01:44:33.243Z,23.31
2022-12-28T01:45:33.250Z,23.32
2022-12-28T01:46:33.196Z,23.32
2022-12-28T01:47:33.185Z,23.31
2022-12-28T01:48:33.155Z,23.31
2022-12-28T01:49:33.154Z,23.31
2022-12-28T01:50:33.124Z,23.31
2022-12-28T01:51:33.100Z,23.31
2022-12-28T01:52:33.097Z,23.30
2022-12-28T01:53:33.077Z,23.30
2022-12-28T01:54:33.052Z,23.30
2022-12-28T01:55:33.045Z,23.30
2022-12-28T01:56:33.042Z,23.30
2022-12-28T01:57:33.004Z,23.31
2022-12-28T01:58:33.056Z,23.29
2022-12-28T01:59:32.972Z,23.30
2022-12-28T02:00:32.963Z,23.30
2022-12-28T02:01:33.012Z,23.30
2022-12-28T02:02:33.252Z,23.29
2022-12-28T02:03:32.924Z,23.29
2022-12-28T02:04:32.896Z,23.30
2022-12-28T02:05:32.882Z,23.30
2022-12-28T02:06:32.888Z,23.30
2022-12-28T02:07:32.853Z,23.30
2022-12-28T02:08:32.840Z,23.29
2022-12-28T02:09:32.827Z,23.29
2022-12-28T02:10:44.378Z,23.29
2022-12-28T02:11:32.793Z,23.28
2022-12-28T02:12:32.842Z,23.29
2022-12-28T02:13:32.756Z,23.28
2022-12-28T02:14:32.786Z,23.29
2022-12-28T02:15:32.752Z,23.28
2022-12-28T02:16:32.737Z,23.29
2022-12-28T02:17:32.703Z,23.29
2022-12-28T02:18:32.688Z,23.28
2022-12-28T02:19:32.663Z,23.28
2022-12-28T02:20:32.659Z,23.29
2022-12-28T02:21:32.628Z,23.28
2022-12-28T02:22:32.615Z,23.28
2022-12-28T02:23:32.592Z,23.28
2022-12-28T02:24:32.577Z,23.28
2022-12-28T02:25:32.797Z,23.28
2022-12-28T02:26:32.532Z,23.28
2022-12-28T02:27:32.512Z,23.27
2022-12-28T02:28:32.505Z,23.28
2022-12-28T02:29:32.490Z,23.27
2022-12-28T02:30:32.541Z,23.28
2022-12-28T02:31:32.464Z,23.28
2022-12-28T02:32:32.439Z,23.27
2022-12-28T02:33:32.423Z,23.28
2022-12-28T02:34:32.408Z,23.27
2022-12-28T02:35:32.392Z,23.27
2022-12-28T02:36:32.385Z,23.27
2022-12-28T02:37:32.368Z,23.27
2022-12-28T02:38:32.349Z,23.27
2022-12-28T02:39:32.335Z,23.27
2022-12-28T02:40:32.318Z,23.28
2022-12-28T02:41:32.303Z,23.27
2022-12-28T02:42:32.288Z,23.27
2022-12-28T02:43:32.279Z,23.27
2022-12-28T02:44:32.258Z,23.27
2022-12-28T02:45:32.240Z,23.27
2022-12-28T02:46:32.318Z,23.28
2022-12-28T02:47:32.203Z,23.27
2022-12-28T02:48:32.184Z,23.27
2022-12-28T02:49:32.167Z,23.27
2022-12-28T02:50:32.152Z,23.27
2022-12-28T02:51:32.152Z,23.27
2022-12-28T02:52:32.119Z,23.27
2022-12-28T02:53:32.111Z,23.26
2022-12-28T02:54:32.087Z,23.27
2022-12-28T02:55:32.064Z,23.26
2022-12-28T02:56:32.049Z,23.26
2022-12-28T02:57:32.049Z,23.26
2022-12-28T02:58:32.018Z,23.26
2022-12-28T02:59:32.005Z,23.26
2022-12-28T03:00:31.987Z,23.25
2022-12-28T03:01:32.120Z,23.26
2022-12-28T03:02:32.240Z,23.26
2022-12-28T03:03:31.944Z,23.26
2022-12-28T03:04:31.926Z,23.25
2022-12-28T03:05:31.900Z,23.26
2022-12-28T03:06:31.890Z,23.26
2022-12-28T03:07:31.863Z,23.26
2022-12-28T03:08:31.852Z,23.26
2022-12-28T03:09:31.841Z,23.26
2022-12-28T03:10:31.833Z,23.26
2022-12-28T03:11:31.812Z,23.25
2022-12-28T03:12:31.791Z,23.26
2022-12-28T03:13:31.792Z,23.26
2022-12-28T03:14:31.761Z,23.26
2022-12-28T03:15:31.867Z,23.26
2022-12-28T03:16:31.744Z,23.26
2022-12-28T03:17:31.712Z,23.26
2022-12-28T03:18:31.724Z,23.26
2022-12-28T03:19:31.691Z,23.26
2022-12-28T03:20:31.672Z,23.26
2022-12-28T03:21:31.655Z,23.25
2022-12-28T03:22:31.648Z,23.25
2022-12-28T03:23:31.613Z,23.26
2022-12-28T03:24:31.589Z,23.25
2022-12-28T03:25:31.579Z,23.25
2022-12-28T03:26:31.563Z,23.26
2022-12-28T03:27:31.541Z,23.25
2022-12-28T03:28:31.521Z,23.26
2022-12-28T03:29:31.497Z,23.26
2022-12-28T03:30:31.489Z,23.27
2022-12-28T03:31:31.475Z,23.26
2022-12-28T03:32:31.440Z,23.27
2022-12-28T03:33:31.419Z,23.27
2022-12-28T03:34:31.429Z,23.26
2022-12-28T03:35:31.383Z,23.27
2022-12-28T03:36:31.362Z,23.26
2022-12-28T03:37:31.356Z,23.27
2022-12-28T03:38:31.333Z,23.27
2022-12-28T03:39:31.318Z,23.26
2022-12-28T03:40:31.303Z,23.26
2022-12-28T03:41:31.291Z,23.27
2022-12-28T03:42:31.310Z,23.27
2022-12-28T03:43:31.267Z,23.27
2022-12-28T03:44:31.247Z,23.27
2022-12-28T03:45:45.167Z,23.27
2022-12-28T03:46:31.292Z,23.26
2022-12-28T03:47:31.186Z,23.27
2022-12-28T03:48:31.175Z,23.27
2022-12-28T03:49:31.147Z,23.27
2022-12-28T03:50:31.150Z,23.27
2022-12-28T03:51:31.114Z,23.27
2022-12-28T03:52:31.100Z,23.27
2022-12-28T03:53:31.075Z,23.28
2022-12-28T03:54:31.073Z,23.28
2022-12-28T03:55:31.041Z,23.27
2022-12-28T03:56:31.036Z,23.28
2022-12-28T03:57:31.011Z,23.28
2022-12-28T03:58:31.005Z,23.28
2022-12-28T03:59:30.984Z,23.28
2022-12-28T04:00:30.969Z,23.28
2022-12-28T04:01:31.130Z,23.28
2022-12-28T04:02:31.241Z,23.28
2022-12-28T04:03:30.980Z,23.28
2022-12-28T04:04:30.905Z,23.28
2022-12-28T04:05:30.893Z,23.28
2022-12-28T04:06:30.903Z,23.28
2022-12-28T04:07:30.849Z,23.28
2022-12-28T04:08:30.842Z,23.28
2022-12-28T04:09:30.825Z,23.28
2022-12-28T04:10:30.811Z,23.29
2022-12-28T04:11:30.806Z,23.29
2022-12-28T04:12:30.775Z,23.29
2022-12-28T04:13:30.775Z,23.28
2022-12-28T04:14:30.749Z,23.29
2022-12-28T04:15:30.739Z,23.28
2022-12-28T04:16:30.720Z,23.29
2022-12-28T04:17:30.708Z,23.29
2022-12-28T04:18:30.700Z,23.28
2022-12-28T04:19:30.669Z,23.29
2022-12-28T04:20:30.654Z,23.27
2022-12-28T04:21:30.641Z,23.28
2022-12-28T04:22:30.642Z,23.29
2022-12-28T04:23:30.647Z,23.29
2022-12-28T04:24:30.592Z,23.29
2022-12-28T04:25:30.559Z,23.28
2022-12-28T04:26:30.549Z,23.28
2022-12-28T04:27:30.536Z,23.29
2022-12-28T04:28:30.538Z,23.29
2022-12-28T04:29:30.489Z,23.29
2022-12-28T04:30:30.468Z,23.29
2022-12-28T04:31:30.569Z,23.29
2022-12-28T04:32:30.436Z,23.28
2022-12-28T04:33:30.419Z,23.29
2022-12-28T04:34:30.401Z,23.29
2022-12-28T04:35:30.390Z,23.29
2022-12-28T04:36:30.369Z,23.28
2022-12-28T04:37:30.354Z,23.28
2022-12-28T04:38:30.375Z,23.28
2022-12-28T04:39:55.203Z,23.28
2022-12-28T04:40:30.312Z,23.27
2022-12-28T04:41:30.296Z,23.27
2022-12-28T04:42:30.279Z,23.27
2022-12-28T04:43:30.267Z,23.27
2022-12-28T04:44:30.241Z,23.28
2022-12-28T04:45:30.225Z,23.28
2022-12-28T04:46:30.257Z,23.28
2022-12-28T04:47:30.202Z,23.28
2022-12-28T04:48:30.191Z,23.28
2022-12-28T04:49:30.165Z,23.28
2022-12-28T04:50:30.149Z,23.28
2022-12-28T04:51:30.139Z,23.28
2022-12-28T04:52:30.106Z,23.28
2022-12-28T04:53:30.099Z,23.29
2022-12-28T04:54:30.102Z,23.28
2022-12-28T04:55:32.525Z,23.28
2022-12-28T04:56:30.066Z,23.28
2022-12-28T04:57:30.029Z,23.28
2022-12-28T04:58:30.020Z,23.28
2022-12-28T04:59:30.010Z,23.27
2022-12-28T05:00:30.035Z,23.27
2022-12-28T05:01:30.095Z,23.27
2022-12-28T05:02:30.086Z,23.28
2022-12-28T05:03:29.946Z,23.28
2022-12-28T05:04:29.929Z,23.27
2022-12-28T05:05:29.919Z,23.27
2022-12-28T05:06:29.899Z,23.27
2022-12-28T05:07:29.877Z,23.27
2022-12-28T05:08:29.862Z,23.27
2022-12-28T05:09:29.850Z,23.27
2022-12-28T05:10:29.880Z,23.28
2022-12-28T05:11:29.825Z,23.27
2022-12-28T05:12:29.799Z,23.27
2022-12-28T05:13:29.777Z,23.27
2022-12-28T05:14:35.089Z,23.27
2022-12-28T05:15:29.745Z,23.27
2022-12-28T05:16:29.804Z,23.27
2022-12-28T05:17:29.714Z,23.27
2022-12-28T05:18:29.694Z,23.27
2022-12-28T05:19:29.680Z,23.27
2022-12-28T05:20:29.662Z,23.27
2022-12-28T05:21:29.649Z,23.27
2022-12-28T05:22:29.632Z,23.27
2022-12-28T05:23:29.603Z,23.27
2022-12-28T05:24:29.591Z,23.27
2022-12-28T05:25:29.567Z,23.27
2022-12-28T05:26:29.767Z,23.28
2022-12-28T05:27:29.542Z,23.27
2022-12-28T05:28:29.521Z,23.27
2022-12-28T05:29:29.525Z,23.27
2022-12-28T05:30:29.490Z,23.28
2022-12-28T05:31:29.517Z,23.28
2022-12-28T05:32:29.463Z,23.27
2022-12-28T05:33:29.454Z,23.28
2022-12-28T05:34:29.439Z,23.27
2022-12-28T05:35:29.418Z,23.27
2022-12-28T05:36:29.417Z,23.27
2022-12-28T05:37:29.390Z,23.26
2022-12-28T05:38:29.385Z,23.26
2022-12-28T05:39:29.369Z,23.27
2022-12-28T05:40:29.352Z,23.27
2022-12-28T05:41:29.341Z,23.27
2022-12-28T05:42:29.356Z,23.27
2022-12-28T05:43:29.314Z,23.27
2022-12-28T05:44:29.303Z,23.27
2022-12-28T05:45:29.289Z,23.27
2022-12-28T05:46:29.357Z,23.27
2022-12-28T05:47:29.268Z,23.27
2022-12-28T05:48:29.259Z,23.27
2022-12-28T05:49:29.247Z,23.27
2022-12-28T05:50:29.224Z,23.27
2022-12-28T05:51:29.212Z,23.27
2022-12-28T05:52:29.196Z,23.27
2022-12-28T05:53:29.183Z,23.27
2022-12-28T05:54:29.171Z,23.27
2022-12-28T05:55:29.171Z,23.27
2022-12-28T05:56:29.141Z,23.28
2022-12-28T05:57:29.126Z,23.27
2022-12-28T05:58:29.129Z,23.28
2022-12-28T05:59:29.132Z,23.27
2022-12-28T06:00:29.056Z,23.27
2022-12-28T06:01:29.089Z,23.27
2022-12-28T06:02:29.118Z,23.27
2022-12-28T06:03:29.174Z,23.27
2022-12-28T06:04:28.985Z,23.27
2022-12-28T06:05:28.961Z,23.27
2022-12-28T06:06:28.956Z,23.27
2022-12-28T06:07:28.932Z,23.28
2022-12-28T06:08:28.914Z,23.27
2022-12-28T06:09:28.895Z,23.27
2022-12-28T06:10:28.879Z,23.27
2022-12-28T06:11:28.856Z,23.27
2022-12-28T06:12:28.827Z,23.27
2022-12-28T06:13:28.811Z,23.27
2022-12-28T06:14:28.811Z,23.27
2022-12-28T06:15:28.763Z,23.27
2022-12-28T06:16:28.835Z,23.27
2022-12-28T06:17:28.729Z,23.27
2022-12-28T06:18:28.714Z,23.27
2022-12-28T06:19:28.685Z,23.27
2022-12-28T06:20:28.661Z,23.27
2022-12-28T06:21:28.648Z,23.27
2022-12-28T06:22:28.623Z,23.27
2022-12-28T06:23:28.602Z,23.27
2022-12-28T06:24:28.576Z,23.27
2022-12-28T06:25:28.562Z,23.27
2022-12-28T06:26:28.548Z,23.27
2022-12-28T06:27:28.513Z,23.26
2022-12-28T06:28:28.498Z,23.26
2022-12-28T06:29:28.494Z,23.27
2022-12-28T06:30:28.504Z,23.26
2022-12-28T06:31:28.515Z,23.26
2022-12-28T06:32:28.458Z,23.26
2022-12-28T06:33:28.452Z,23.26
2022-12-28T06:34:28.440Z,23.27
2022-12-28T06:35:28.422Z,23.27
2022-12-28T06:36:28.403Z,23.27
2022-12-28T06:37:28.387Z,23.27
2022-12-28T06:38:28.375Z,23.27
2022-12-28T06:39:28.380Z,23.27
2022-12-28T06:40:46.842Z,23.27
2022-12-28T06:41:28.352Z,23.26
2022-12-28T06:42:28.325Z,23.26
2022-12-28T06:43:28.311Z,23.26
2022-12-28T06:44:28.309Z,23.27
2022-12-28T06:45:28.290Z,23.27
2022-12-28T06:46:28.311Z,23.27
2022-12-28T06:47:28.258Z,23.27
2022-12-28T06:48:28.241Z,23.27
2022-12-28T06:49:28.222Z,23.28
2022-12-28T06:50:28.211Z,23.27
2022-12-28T06:51:28.199Z,23.27
2022-12-28T06:52:28.171Z,23.27
2022-12-28T06:53:28.149Z,23.27
2022-12-28T06:54:28.133Z,23.28
2022-12-28T06:55:28.127Z,23.28
2022-12-28T06:56:28.100Z,23.27
2022-12-28T06:57:28.088Z,23.27
2022-12-28T06:58:28.066Z,23.26
2022-12-28T06:59:28.059Z,23.27
2022-12-28T07:00:28.037Z,23.27
2022-12-28T07:01:28.147Z,23.27
2022-12-28T07:02:28.289Z,23.28
2022-12-28T07:03:27.998Z,23.27
2022-12-28T07:04:27.990Z,23.27
2022-12-28T07:05:27.989Z,23.27
2022-12-28T07:06:27.977Z,23.27
2022-12-28T07:07:27.957Z,23.27
2022-12-28T07:08:27.948Z,23.27
2022-12-28T07:09:27.948Z,23.27
2022-12-28T07:10:27.925Z,23.27
2022-12-28T07:11:27.907Z,23.26
2022-12-28T07:12:27.893Z,23.28
2022-12-28T07:13:28.406Z,23.28
2022-12-28T07:14:27.890Z,23.27
2022-12-28T07:15:27.863Z,23.28
2022-12-28T07:17:27.823Z,23.27
2022-12-28T07:18:27.837Z,23.28
2022-12-28T07:19:27.783Z,23.28
2022-12-28T07:20:27.820Z,23.28
2022-12-28T07:21:27.747Z,23.28
2022-12-28T07:22:27.733Z,23.28
2022-12-28T07:23:27.719Z,23.27
2022-12-28T07:24:27.691Z,23.28
2022-12-28T07:25:27.671Z,23.27
2022-12-28T07:26:27.651Z,23.27
2022-12-28T07:27:27.634Z,23.27
2022-12-28T07:28:27.621Z,23.27
2022-12-28T07:29:27.599Z,23.27
2022-12-28T07:30:27.689Z,23.28
2022-12-28T07:31:27.568Z,23.27
2022-12-28T07:32:27.555Z,23.27
2022-12-28T07:33:27.529Z,23.28
2022-12-28T07:34:27.558Z,23.28
2022-12-28T07:35:27.498Z,23.28
2022-12-28T07:36:27.483Z,23.28
2022-12-28T07:37:27.468Z,23.28
2022-12-28T07:38:27.444Z,23.28
2022-12-28T07:39:27.442Z,23.28
2022-12-28T07:40:27.552Z,23.29
2022-12-28T07:41:27.395Z,23.28
2022-12-28T07:42:27.380Z,23.28
2022-12-28T07:43:27.361Z,23.28
2022-12-28T07:44:29.695Z,23.28
2022-12-28T07:45:27.334Z,23.27
2022-12-28T07:46:27.378Z,23.28
2022-12-28T07:47:27.290Z,23.29
2022-12-28T07:48:27.272Z,23.28
2022-12-28T07:49:27.264Z,23.28
2022-12-28T07:50:29.504Z,23.28
2022-12-28T07:51:27.227Z,23.28
2022-12-28T07:52:27.211Z,23.28
2022-12-28T07:53:27.196Z,23.28
2022-12-28T07:54:27.180Z,23.28
2022-12-28T07:55:27.152Z,23.28
2022-12-28T07:56:27.142Z,23.28
2022-12-28T07:57:27.119Z,23.27
2022-12-28T07:58:27.102Z,23.27
2022-12-28T07:59:30.948Z,23.28
2022-12-28T08:00:27.149Z,23.27
2022-12-28T08:01:27.310Z,23.27
2022-12-28T08:02:27.155Z,23.27
2022-12-28T08:03:27.057Z,23.28
2022-12-28T08:04:27.004Z,23.28
2022-12-28T08:05:26.979Z,23.28
2022-12-28T08:06:27.004Z,23.28
2022-12-28T08:07:26.956Z,23.28
2022-12-28T08:08:26.935Z,23.28
2022-12-28T08:09:26.909Z,23.28
2022-12-28T08:10:26.886Z,23.28
2022-12-28T08:11:26.868Z,23.28
2022-12-28T08:12:26.858Z,23.29
2022-12-28T08:13:26.835Z,23.28
2022-12-28T08:14:26.818Z,23.28
2022-12-28T08:15:26.884Z,23.28
2022-12-28T08:16:26.994Z,23.29
2022-12-28T08:17:26.767Z,23.29
2022-12-28T08:18:26.761Z,23.29
2022-12-28T08:19:26.721Z,23.29
2022-12-28T08:20:26.704Z,23.28
2022-12-28T08:21:26.698Z,23.29
2022-12-28T08:22:26.691Z,23.28
2022-12-28T08:23:26.652Z,23.29
2022-12-28T08:24:26.626Z,23.28
2022-12-28T08:25:26.624Z,23.28
2022-12-28T08:26:26.601Z,23.29
2022-12-28T08:27:26.598Z,23.28
2022-12-28T08:28:26.570Z,23.28
2022-12-28T08:29:26.558Z,23.28
2022-12-28T08:30:26.537Z,23.28
2022-12-28T08:31:26.654Z,23.28
2022-12-28T08:32:26.516Z,23.28
2022-12-28T08:33:26.487Z,23.29
2022-12-28T08:34:26.579Z,23.28
2022-12-28T08:35:26.476Z,23.28
2022-12-28T08:36:26.448Z,23.28
2022-12-28T08:37:26.435Z,23.29
2022-12-28T08:38:26.436Z,23.29
2022-12-28T08:39:26.395Z,23.28
2022-12-28T08:40:26.383Z,23.29
2022-12-28T08:41:26.364Z,23.29
2022-12-28T08:42:26.355Z,23.30
2022-12-28T08:43:26.336Z,23.29
2022-12-28T08:44:26.313Z,23.29
2022-12-28T08:45:26.325Z,23.29
2022-12-28T08:46:26.378Z,23.29
2022-12-28T08:47:26.258Z,23.29
2022-12-28T08:48:26.287Z,23.29
2022-12-28T08:49:26.229Z,23.30
2022-12-28T08:50:31.422Z,23.29
2022-12-28T08:51:26.237Z,23.29
2022-12-28T08:52:26.189Z,23.29
2022-12-28T08:53:26.159Z,23.29
2022-12-28T08:54:26.172Z,23.29
2022-12-28T08:55:26.153Z,23.29
2022-12-28T08:56:26.136Z,23.29
2022-12-28T08:57:26.107Z,23.29
2022-12-28T08:58:26.095Z,23.30
2022-12-28T08:59:26.087Z,23.29
2022-12-28T09:00:26.082Z,23.29
2022-12-28T09:01:26.341Z,23.29
2022-12-28T09:02:26.229Z,23.28
2022-12-28T09:03:26.076Z,23.29
2022-12-28T09:04:25.999Z,23.30
2022-12-28T09:05:25.971Z,23.30
2022-12-28T09:06:25.949Z,23.30
2022-12-28T09:07:25.937Z,23.31
2022-12-28T09:08:25.915Z,23.31
2022-12-28T09:09:25.897Z,23.31
2022-12-28T09:10:25.907Z,23.30
2022-12-28T09:11:25.862Z,23.30
2022-12-28T09:12:25.846Z,23.30
2022-12-28T09:13:25.842Z,23.31
2022-12-28T09:14:25.867Z,23.31
2022-12-28T09:15:25.800Z,23.31
2022-12-28T09:16:25.896Z,23.31
2022-12-28T09:17:25.780Z,23.30
2022-12-28T09:18:25.763Z,23.30
2022-12-28T09:19:25.800Z,23.30
2022-12-28T09:20:25.725Z,23.30
2022-12-28T09:21:25.701Z,23.31
2022-12-28T09:22:25.686Z,23.31
2022-12-28T09:23:25.669Z,23.30
2022-12-28T09:24:25.656Z,23.31
2022-12-28T09:25:25.633Z,23.31
2022-12-28T09:26:25.639Z,23.31
2022-12-28T09:27:25.593Z,23.32
2022-12-28T09:28:25.568Z,23.31
2022-12-28T09:29:25.556Z,23.32
2022-12-28T09:30:25.537Z,23.32
2022-12-28T09:31:25.604Z,23.31
2022-12-28T09:32:25.501Z,23.31
2022-12-28T09:33:25.481Z,23.32
2022-12-28T09:34:36.697Z,23.32
2022-12-28T09:35:25.444Z,23.31
2022-12-28T09:36:25.431Z,23.31
2022-12-28T09:37:25.424Z,23.32
2022-12-28T09:38:25.383Z,23.32
2022-12-28T09:39:25.520Z,23.32
2022-12-28T09:40:25.353Z,23.32
2022-12-28T09:41:25.321Z,23.33
2022-12-28T09:42:25.338Z,23.34
2022-12-28T09:43:25.291Z,23.34
2022-12-28T09:44:25.257Z,23.33
2022-12-28T09:45:25.249Z,23.33
2022-12-28T09:46:25.240Z,23.32
2022-12-28T09:47:25.205Z,23.33
2022-12-28T09:48:25.175Z,23.34
2022-12-28T09:49:25.150Z,23.33
2022-12-28T09:50:25.188Z,23.34
2022-12-28T09:51:25.122Z,23.34
2022-12-28T09:52:25.085Z,23.34
2022-12-28T09:53:25.063Z,23.33
2022-12-28T09:54:25.049Z,23.33
2022-12-28T09:55:25.039Z,23.32
2022-12-28T09:56:25.020Z,23.32
2022-12-28T09:57:25.000Z,23.32
2022-12-28T09:58:24.996Z,23.32
2022-12-28T09:59:24.944Z,23.31
2022-12-28T10:00:24.928Z,23.32
2022-12-28T10:01:25.052Z,23.32
2022-12-28T10:02:25.112Z,23.32
2022-12-28T10:03:25.024Z,23.31
2022-12-28T10:04:24.861Z,23.31
2022-12-28T10:05:24.831Z,23.31
2022-12-28T10:06:24.810Z,23.32
2022-12-28T10:07:24.785Z,23.32
2022-12-28T10:08:24.774Z,23.32
2022-12-28T10:09:24.766Z,23.32
2022-12-28T10:10:24.725Z,23.34
2022-12-28T10:11:24.708Z,23.33
2022-12-28T10:12:24.746Z,23.33
2022-12-28T10:14:24.667Z,23.33
2022-12-28T10:15:24.617Z,23.34
2022-12-28T10:16:24.638Z,23.34
2022-12-28T10:17:24.571Z,23.34
2022-12-28T10:18:24.546Z,23.34
2022-12-28T10:19:24.528Z,23.35
2022-12-28T10:20:24.510Z,23.34
2022-12-28T10:21:31.965Z,23.34
2022-12-28T10:22:24.464Z,23.34
2022-12-28T10:23:24.452Z,23.35
2022-12-28T10:24:32.686Z,23.35
2022-12-28T10:25:24.405Z,23.35
2022-12-28T10:26:24.366Z,23.35
2022-12-28T10:27:24.340Z,23.36
2022-12-28T10:28:24.322Z,23.36
2022-12-28T10:29:24.309Z,23.35
2022-12-28T10:30:24.306Z,23.35
2022-12-28T10:31:24.328Z,23.35
2022-12-28T10:32:24.228Z,23.34
2022-12-28T10:33:24.202Z,23.35
2022-12-28T10:34:24.171Z,23.35
2022-12-28T10:35:24.159Z,23.35
2022-12-28T10:36:29.712Z,23.34
2022-12-28T10:37:24.106Z,23.34
2022-12-28T10:38:24.072Z,23.33
2022-12-28T10:39:24.044Z,23.35
2022-12-28T10:40:24.028Z,23.34
2022-12-28T10:41:23.987Z,23.34
2022-12-28T10:42:23.960Z,23.34
2022-12-28T10:43:23.935Z,23.34
2022-12-28T10:44:40.641Z,23.34
2022-12-28T10:45:23.916Z,23.34
2022-12-28T10:46:23.975Z,23.34
2022-12-28T10:47:23.832Z,23.35
2022-12-28T10:48:23.810Z,23.34
2022-12-28T10:49:23.797Z,23.34
2022-12-28T10:50:39.244Z,23.35
2022-12-28T10:51:23.742Z,23.34
2022-12-28T10:52:23.726Z,23.34
2022-12-28T10:53:23.692Z,23.34
2022-12-28T10:54:27.669Z,23.34
2022-12-28T10:55:23.644Z,23.35
2022-12-28T10:56:23.621Z,23.34
2022-12-28T10:57:23.593Z,23.35
2022-12-28T10:58:33.359Z,23.35
2022-12-28T10:59:23.545Z,23.34
2022-12-28T11:00:23.532Z,23.35
2022-12-28T11:01:23.676Z,23.34
2022-12-28T11:02:23.801Z,23.35
2022-12-28T11:03:23.541Z,23.36
2022-12-28T11:04:23.424Z,23.35
2022-12-28T11:05:23.392Z,23.36
2022-12-28T11:06:27.126Z,23.35
2022-12-28T11:07:23.346Z,23.35
2022-12-28T11:08:23.358Z,23.36
2022-12-28T11:09:23.307Z,23.36
2022-12-28T11:10:23.276Z,23.36
2022-12-28T11:11:23.269Z,23.36
2022-12-28T11:12:23.228Z,23.36
2022-12-28T11:13:23.205Z,23.36
2022-12-28T11:14:23.193Z,23.37
2022-12-28T11:15:23.190Z,23.37
2022-12-28T11:16:23.184Z,23.37
2022-12-28T11:17:23.120Z,23.38
2022-12-28T11:18:23.110Z,23.40
2022-12-28T11:19:23.066Z,23.40
2022-12-28T11:20:23.039Z,23.42
2022-12-28T11:21:23.053Z,23.43
2022-12-28T11:22:22.994Z,23.43
2022-12-28T11:23:22.971Z,23.44
2022-12-28T11:24:22.944Z,23.45
2022-12-28T11:25:22.931Z,23.46
2022-12-28T11:26:22.921Z,23.46
2022-12-28T11:27:22.912Z,23.47
2022-12-28T11:28:22.855Z,23.47
2022-12-28T11:29:22.828Z,23.48
2022-12-28T11:30:22.807Z,23.48
2022-12-28T11:31:22.890Z,23.49
2022-12-28T11:32:22.750Z,23.49
2022-12-28T11:33:22.726Z,23.50
2022-12-28T11:34:22.730Z,23.50
2022-12-28T11:35:22.680Z,23.51
2022-12-28T11:36:22.655Z,23.50
2022-12-28T11:37:22.621Z,23.51
2022-12-28T11:38:22.588Z,23.51
2022-12-28T11:39:22.567Z,23.51
2022-12-28T11:40:22.539Z,23.51
2022-12-28T11:41:22.517Z,23.52
2022-12-28T11:42:38.973Z,23.52
2022-12-28T11:43:23.233Z,23.52
2022-12-28T11:44:22.445Z,23.52
2022-12-28T11:45:22.414Z,23.52
2022-12-28T11:46:22.399Z,23.52
2022-12-28T11:47:27.965Z,23.53
2022-12-28T11:48:22.343Z,23.52
2022-12-28T11:49:22.319Z,23.52
2022-12-28T11:50:22.316Z,23.53
2022-12-28T11:51:22.280Z,23.52
2022-12-28T11:52:22.242Z,23.53
2022-12-28T11:53:22.223Z,23.52
2022-12-28T11:54:22.193Z,23.53
2022-12-28T11:55:22.168Z,23.53
2022-12-28T11:56:22.144Z,23.52
2022-12-28T11:57:22.110Z,23.52
2022-12-28T11:58:22.089Z,23.52
2022-12-28T11:59:22.055Z,23.52
2022-12-28T12:00:23.435Z,23.51
2022-12-28T12:01:22.288Z,23.51
2022-12-28T12:02:22.255Z,23.51
2022-12-28T12:03:22.209Z,23.51
2022-12-28T12:04:22.150Z,23.51
2022-12-28T12:05:22.119Z,23.50
2022-12-28T12:06:26.776Z,23.50
2022-12-28T12:07:26.002Z,23.49
2022-12-28T12:08:22.032Z,23.49
2022-12-28T12:09:22.016Z,23.49
2022-12-28T12:10:22.742Z,23.50
2022-12-28T12:11:21.954Z,23.50
2022-12-28T12:12:21.926Z,23.50
2022-12-28T12:13:21.902Z,23.51
2022-12-28T12:14:21.872Z,23.51
2022-12-28T12:15:21.845Z,23.50
2022-12-28T12:16:21.871Z,23.51
2022-12-28T12:17:21.795Z,23.50
2022-12-28T12:18:21.761Z,23.51
2022-12-28T12:19:21.751Z,23.50
2022-12-28T12:20:21.718Z,23.50
2022-12-28T12:21:21.691Z,23.50
2022-12-28T12:22:21.692Z,23.50
2022-12-28T12:23:21.636Z,23.50
2022-12-28T12:24:21.610Z,23.50
2022-12-28T12:25:21.576Z,23.50
2022-12-28T12:26:21.764Z,23.50
2022-12-28T12:27:21.528Z,23.50
2022-12-28T12:28:21.504Z,23.50
2022-12-28T12:29:21.473Z,23.49
2022-12-28T12:30:21.452Z,23.50
2022-12-28T12:31:21.763Z,23.50
2022-12-28T12:32:21.395Z,23.49
2022-12-28T12:33:21.378Z,23.49
2022-12-28T12:34:21.349Z,23.49
2022-12-28T12:35:21.328Z,23.48
2022-12-28T12:36:21.308Z,23.48
2022-12-28T12:37:21.277Z,23.48
2022-12-28T12:38:21.276Z,23.48
2022-12-28T12:39:21.224Z,23.47
2022-12-28T12:40:21.204Z,23.48
2022-12-28T12:41:21.717Z,23.48
2022-12-28T12:42:21.161Z,23.48
2022-12-28T12:43:21.132Z,23.48
2022-12-28T12:44:21.089Z,23.48
2022-12-28T12:45:21.061Z,23.48
2022-12-28T12:46:21.087Z,23.49
2022-12-28T12:47:21.006Z,23.48
2022-12-28T12:48:20.992Z,23.48
2022-12-28T12:49:20.948Z,23.48
2022-12-28T12:50:20.923Z,23.47
2022-12-28T12:51:20.904Z,23.46
2022-12-28T12:52:20.872Z,23.47
2022-12-28T12:53:20.833Z,23.45
2022-12-28T12:54:20.868Z,23.45
2022-12-28T12:55:20.781Z,23.44
2022-12-28T12:56:20.760Z,23.45
2022-12-28T12:57:20.740Z,23.45
2022-12-28T12:58:20.722Z,23.45
2022-12-28T12:59:20.695Z,23.45
2022-12-28T13:00:20.667Z,23.44
2022-12-28T13:01:20.738Z,23.45
2022-12-28T13:02:20.880Z,23.46
2022-12-28T13:03:20.626Z,23.46
2022-12-28T13:04:20.565Z,23.46
2022-12-28T13:05:20.541Z,23.47
2022-12-28T13:06:20.513Z,23.46
2022-12-28T13:07:20.485Z,23.47
2022-12-28T13:08:20.490Z,23.47
2022-12-28T13:09:20.435Z,23.47
2022-12-28T13:10:20.458Z,23.47
2022-12-28T13:11:20.388Z,23.47
2022-12-28T13:12:20.353Z,23.47
2022-12-28T13:13:20.317Z,23.46
2022-12-28T13:14:20.286Z,23.46
2022-12-28T13:15:20.267Z,23.46
2022-12-28T13:16:20.294Z,23.46
2022-12-28T13:17:20.218Z,23.46
2022-12-28T13:19:20.168Z,23.46
2022-12-28T13:20:20.148Z,23.46
2022-12-28T13:21:20.134Z,23.46
2022-12-28T13:22:20.106Z,23.46
2022-12-28T13:23:20.102Z,23.47
2022-12-28T13:24:20.065Z,23.46
2022-12-28T13:25:20.041Z,23.46
2022-12-28T13:26:20.060Z,23.46
2022-12-28T13:27:19.995Z,23.46
2022-12-28T13:28:19.977Z,23.46
2022-12-28T13:29:19.956Z,23.46
2022-12-28T13:30:19.930Z,23.46
2022-12-28T13:31:19.936Z,23.47
2022-12-28T13:32:19.900Z,23.47
2022-12-28T13:33:19.865Z,23.47
2022-12-28T13:34:19.840Z,23.47
2022-12-28T13:35:19.816Z,23.47
2022-12-28T13:36:19.807Z,23.47
2022-12-28T13:37:19.780Z,23.47
2022-12-28T13:38:19.750Z,23.47
2022-12-28T13:39:19.726Z,23.47
2022-12-28T13:40:19.702Z,23.47
2022-12-28T13:41:19.678Z,23.46
2022-12-28T13:42:19.691Z,23.46
2022-12-28T13:43:19.627Z,23.46
2022-12-28T13:44:19.600Z,23.46
2022-12-28T13:45:19.583Z,23.46
2022-12-28T13:46:19.616Z,23.46
2022-12-28T13:47:19.525Z,23.46
2022-12-28T13:48:19.506Z,23.46
2022-12-28T13:49:19.473Z,23.45